createdAt,value
2017-08-01T00:01:10.233Z,8.23
2017-08-01T00:03:38.602Z,12.13
2017-08-01T00:06:07.060Z,6.73
2017-08-01T00:08:34.656Z,10.27
2017-08-01T00:11:02.331Z,8.50
2017-08-01T00:13:29.987Z,7.70
2017-08-01T00:15:57.618Z,10.30
2017-08-01T00:18:25.229Z,10.93
2017-08-01T00:20:52.806Z,10.40
2017-08-01T00:23:20.397Z,15.10
2017-08-01T00:25:48.000Z,13.10
2017-08-01T00:28:15.786Z,12.77
2017-08-01T00:30:43.422Z,10.70
2017-08-01T00:33:11.042Z,11.43
2017-08-01T00:35:38.635Z,8.60
2017-08-01T00:38:06.356Z,19.53
2017-08-01T00:40:33.960Z,11.37
2017-08-01T00:43:01.645Z,14.10
2017-08-01T00:45:29.338Z,6.73
2017-08-01T00:47:57.489Z,5.33
2017-08-01T00:50:25.066Z,6.80
2017-08-01T00:52:52.703Z,9.97
2017-08-01T00:55:20.459Z,6.73
2017-08-01T00:57:48.042Z,7.77
2017-08-01T01:00:15.645Z,7.67
2017-08-01T01:02:44.133Z,12.03
2017-08-01T01:05:12.521Z,7.47
2017-08-01T01:07:40.156Z,12.10
2017-08-01T01:10:07.772Z,8.03
2017-08-01T01:12:35.473Z,11.47
2017-08-01T01:15:03.109Z,7.07
2017-08-01T01:17:30.720Z,7.33
2017-08-01T01:19:59.084Z,11.20
2017-08-01T01:22:26.760Z,22.10
2017-08-01T01:24:54.387Z,9.30
2017-08-01T01:27:21.977Z,7.23
2017-08-01T01:29:50.479Z,10.43
2017-08-01T01:32:18.136Z,9.80
2017-08-01T01:34:45.758Z,12.00
2017-08-01T01:37:13.358Z,10.70
2017-08-01T01:39:41.070Z,9.30
2017-08-01T01:42:08.676Z,8.63
2017-08-01T01:44:36.319Z,11.77
2017-08-01T01:47:04.095Z,10.47
2017-08-01T01:49:32.482Z,11.73
2017-08-01T01:52:00.126Z,8.13
2017-08-01T01:54:27.789Z,12.70
2017-08-01T01:56:55.411Z,12.47
2017-08-01T01:59:23.008Z,13.80
2017-08-01T02:01:50.654Z,11.50
2017-08-01T02:04:18.250Z,10.83
2017-08-01T02:06:45.959Z,8.80
2017-08-01T02:09:13.669Z,20.57
2017-08-01T02:11:41.391Z,9.57
2017-08-01T02:14:09.132Z,9.03
2017-08-01T02:16:36.796Z,11.17
2017-08-01T02:19:04.442Z,14.60
2017-08-01T02:21:32.048Z,12.60
2017-08-01T02:23:59.662Z,14.27
2017-08-01T02:26:27.261Z,9.07
2017-08-01T02:28:54.977Z,17.23
2017-08-01T02:31:22.584Z,9.57
2017-08-01T02:33:50.173Z,7.93
2017-08-01T02:36:18.951Z,16.67
2017-08-01T02:38:46.591Z,9.20
2017-08-01T02:41:14.213Z,9.60
2017-08-01T02:43:41.845Z,10.83
2017-08-01T02:46:09.530Z,10.53
2017-08-01T02:48:37.105Z,9.63
2017-08-01T02:51:04.680Z,12.43
2017-08-01T02:53:32.571Z,10.17
2017-08-01T02:56:00.160Z,7.77
2017-08-01T02:58:27.755Z,16.00
2017-08-01T03:00:55.542Z,12.00
2017-08-01T03:03:23.191Z,12.47
2017-08-01T03:05:50.798Z,11.83
2017-08-01T03:08:18.446Z,9.10
2017-08-01T03:10:46.107Z,7.67
2017-08-01T03:13:13.703Z,9.53
2017-08-01T03:15:42.082Z,12.03
2017-08-01T03:18:10.450Z,7.73
2017-08-01T03:20:38.135Z,10.90
2017-08-01T03:23:05.877Z,9.80
2017-08-01T03:25:34.273Z,12.83
2017-08-01T03:28:01.987Z,9.70
2017-08-01T03:30:29.610Z,16.03
2017-08-01T03:32:57.202Z,11.27
2017-08-01T03:35:24.929Z,9.60
2017-08-01T03:37:52.603Z,22.50
2017-08-01T03:40:20.198Z,18.33
2017-08-01T03:42:47.792Z,28.47
2017-08-01T03:45:16.580Z,17.57
2017-08-01T03:47:44.993Z,21.60
2017-08-01T03:50:12.594Z,29.90
2017-08-01T03:52:40.201Z,24.13
2017-08-01T03:55:07.913Z,19.50
2017-08-01T03:57:35.500Z,17.93
2017-08-01T04:00:03.882Z,12.83
2017-08-01T04:02:31.524Z,11.23
2017-08-01T04:04:59.114Z,13.37
2017-08-01T04:07:26.765Z,14.40
2017-08-01T04:09:55.366Z,12.07
2017-08-01T04:12:26.905Z,17.93
2017-08-01T04:14:55.564Z,12.23
2017-08-01T04:17:23.243Z,11.10
2017-08-01T04:19:51.068Z,16.40
2017-08-01T04:22:18.730Z,15.27
2017-08-01T04:24:46.387Z,11.03
2017-08-01T04:27:14.072Z,20.30
2017-08-01T04:29:41.801Z,11.40
2017-08-01T04:32:09.403Z,10.80
2017-08-01T04:34:37.187Z,12.10
2017-08-01T04:37:04.806Z,14.70
2017-08-01T04:39:32.395Z,12.90
2017-08-01T04:42:00.104Z,12.43
2017-08-01T04:44:27.712Z,10.40
2017-08-01T04:46:55.317Z,16.10
2017-08-01T04:49:23.282Z,15.03
2017-08-01T04:51:50.903Z,12.83
2017-08-01T04:54:18.497Z,31.03
2017-08-01T04:56:46.896Z,28.47
2017-08-01T04:59:14.552Z,10.83
2017-08-01T05:01:42.139Z,9.20
2017-08-01T05:04:09.758Z,9.53
2017-08-01T05:06:38.124Z,12.13
2017-08-01T05:09:06.615Z,12.47
2017-08-01T05:11:34.325Z,10.77
2017-08-01T05:14:01.911Z,17.70
2017-08-01T05:16:29.522Z,13.43
2017-08-01T05:18:57.127Z,9.10
2017-08-01T05:21:25.530Z,11.87
2017-08-01T05:23:53.151Z,15.30
2017-08-01T05:26:20.753Z,12.10
2017-08-01T05:28:48.336Z,8.43
2017-08-01T05:31:15.970Z,14.43
2017-08-01T05:33:43.600Z,12.07
2017-08-01T05:36:11.199Z,9.60
2017-08-01T05:38:39.407Z,14.17
2017-08-01T05:41:07.876Z,17.67
2017-08-01T05:43:35.623Z,15.40
2017-08-01T05:46:04.055Z,15.77
2017-08-01T05:48:31.657Z,11.30
2017-08-01T05:50:59.386Z,20.00
2017-08-01T05:53:27.793Z,13.47
2017-08-01T05:55:55.912Z,10.73
2017-08-01T05:58:24.051Z,15.10
2017-08-01T06:00:51.697Z,16.20
2017-08-01T06:03:19.483Z,14.93
2017-08-01T06:05:47.924Z,14.33
2017-08-01T06:08:15.616Z,10.90
2017-08-01T06:10:44.010Z,11.47
2017-08-01T06:13:11.956Z,10.33
2017-08-01T06:15:39.623Z,21.10
2017-08-01T06:18:08.021Z,18.63
2017-08-01T06:20:36.609Z,13.50
2017-08-01T06:23:04.193Z,19.13
2017-08-01T06:25:31.877Z,14.83
2017-08-01T06:27:59.474Z,11.90
2017-08-01T06:30:27.834Z,20.63
2017-08-01T06:32:55.543Z,12.43
2017-08-01T06:35:23.178Z,17.57
2017-08-01T06:37:51.661Z,21.40
2017-08-01T06:40:20.193Z,10.00
2017-08-01T06:42:48.018Z,19.40
2017-08-01T06:45:16.380Z,15.10
2017-08-01T06:47:44.011Z,20.33
2017-08-01T06:50:11.598Z,17.67
2017-08-01T06:52:39.191Z,15.97
2017-08-01T06:55:06.846Z,14.53
2017-08-01T06:57:34.533Z,15.47
2017-08-01T07:00:02.157Z,19.83
2017-08-01T07:02:30.533Z,52.37
2017-08-01T07:04:58.936Z,20.37
2017-08-01T07:07:26.558Z,28.33
2017-08-01T07:09:54.350Z,17.37
2017-08-01T07:12:22.694Z,19.40
2017-08-01T07:14:50.265Z,13.63
2017-08-01T07:17:17.945Z,35.30
2017-08-01T07:19:46.298Z,24.60
2017-08-01T07:22:14.318Z,29.17
2017-08-01T07:24:42.491Z,24.40
2017-08-01T07:27:10.558Z,12.90
2017-08-01T07:29:38.196Z,23.30
2017-08-01T07:32:06.619Z,38.50
2017-08-01T07:34:34.226Z,18.10
2017-08-01T07:37:01.809Z,13.47
2017-08-01T07:39:29.615Z,16.63
2017-08-01T07:41:57.237Z,27.70
2017-08-01T07:44:24.839Z,22.23
2017-08-01T07:46:52.525Z,9.00
2017-08-01T07:49:20.127Z,18.23
2017-08-01T07:51:47.755Z,16.80
2017-08-01T07:54:15.438Z,20.57
2017-08-01T07:56:43.804Z,10.17
2017-08-01T07:59:12.161Z,12.10
2017-08-01T08:01:40.348Z,14.97
2017-08-01T08:04:08.928Z,12.77
2017-08-01T08:06:36.670Z,25.00
2017-08-01T08:09:04.338Z,17.00
2017-08-01T08:11:31.947Z,15.80
2017-08-01T08:13:59.598Z,18.50
2017-08-01T08:16:28.028Z,27.43
2017-08-01T08:18:55.609Z,13.50
2017-08-01T08:21:23.212Z,16.40
2017-08-01T08:23:50.871Z,13.53
2017-08-01T08:26:18.458Z,15.47
2017-08-01T08:28:46.082Z,17.43
2017-08-01T08:31:14.661Z,15.33
2017-08-01T08:33:42.271Z,16.17
2017-08-01T08:36:09.879Z,17.90
2017-08-01T08:38:38.260Z,18.60
2017-08-01T08:41:06.669Z,23.70
2017-08-01T08:43:34.249Z,20.00
2017-08-01T08:46:01.939Z,19.17
2017-08-01T08:48:29.724Z,17.87
2017-08-01T08:50:58.083Z,15.00
2017-08-01T08:53:25.703Z,17.93
2017-08-01T08:55:53.906Z,12.57
2017-08-01T08:58:21.565Z,11.10
2017-08-01T09:00:57.322Z,15.07
2017-08-01T09:03:26.555Z,13.00
2017-08-01T09:05:55.056Z,13.23
2017-08-01T09:08:22.679Z,16.13
2017-08-01T09:10:50.436Z,13.37
2017-08-01T09:13:28.090Z,21.47
2017-08-01T09:15:58.854Z,14.53
2017-08-01T09:18:26.724Z,14.70
2017-08-01T09:20:54.346Z,12.87
2017-08-01T09:23:22.335Z,11.43
2017-08-01T09:25:50.542Z,10.87
2017-08-01T09:28:18.964Z,19.50
2017-08-01T09:30:46.661Z,32.80
2017-08-01T09:33:15.139Z,17.40
2017-08-01T09:35:43.111Z,22.57
2017-08-01T09:38:11.080Z,16.57
2017-08-01T09:40:38.656Z,23.17
2017-08-01T09:43:06.279Z,16.70
2017-08-01T09:45:33.963Z,12.97
2017-08-01T09:48:01.556Z,18.30
2017-08-01T09:50:29.163Z,23.80
2017-08-01T09:52:57.115Z,19.37
2017-08-01T09:55:25.563Z,16.27
2017-08-01T09:57:59.721Z,16.70
2017-08-01T10:00:27.387Z,26.33
2017-08-01T10:02:55.075Z,15.03
2017-08-01T10:05:22.849Z,16.00
2017-08-01T10:07:50.669Z,15.63
2017-08-01T10:10:18.282Z,17.47
2017-08-01T10:12:45.925Z,16.83
2017-08-01T10:15:14.478Z,17.03
2017-08-01T10:17:42.199Z,20.73
2017-08-01T10:20:09.940Z,16.57
2017-08-01T10:22:37.835Z,20.70
2017-08-01T10:25:06.622Z,18.50
2017-08-01T10:27:35.178Z,12.17
2017-08-01T10:30:02.887Z,16.57
2017-08-01T10:32:31.525Z,17.87
2017-08-01T10:34:59.628Z,12.47
2017-08-01T10:37:27.436Z,17.00
2017-08-01T10:39:55.199Z,17.60
2017-08-01T10:42:22.821Z,18.13
2017-08-01T10:44:50.418Z,19.60
2017-08-01T10:47:18.181Z,23.50
2017-08-01T10:49:46.091Z,13.43
2017-08-01T10:52:13.666Z,18.70
2017-08-01T10:54:41.405Z,13.67
2017-08-01T10:57:09.312Z,19.03
2017-08-01T10:59:36.889Z,12.70
2017-08-01T11:02:05.236Z,13.97
2017-08-01T11:04:32.898Z,16.70
2017-08-01T11:07:00.611Z,11.53
2017-08-01T11:09:28.666Z,12.50
2017-08-01T11:11:56.455Z,14.83
2017-08-01T11:14:24.318Z,15.57
2017-08-01T11:16:52.044Z,17.33
2017-08-01T11:19:19.649Z,11.90
2017-08-01T11:21:47.276Z,13.13
2017-08-01T11:24:16.272Z,11.90
2017-08-01T11:26:44.703Z,9.90
2017-08-01T11:29:12.444Z,11.90
2017-08-01T11:31:40.438Z,14.30
2017-08-01T11:34:08.292Z,13.70
2017-08-01T11:36:40.704Z,15.17
2017-08-01T11:39:08.425Z,14.70
2017-08-01T11:41:36.325Z,9.77
2017-08-01T11:44:04.715Z,11.27
2017-08-01T11:46:32.335Z,11.60
2017-08-01T11:49:00.109Z,15.60
2017-08-01T11:51:27.692Z,8.03
2017-08-01T11:53:55.378Z,12.23
2017-08-01T11:56:23.152Z,11.93
2017-08-01T11:58:50.725Z,15.33
2017-08-01T12:01:18.372Z,9.93
2017-08-01T12:03:46.016Z,12.30
2017-08-01T12:06:13.603Z,15.40
2017-08-01T12:08:41.979Z,10.83
2017-08-01T12:11:09.680Z,10.73
2017-08-01T12:13:37.303Z,13.40
2017-08-01T12:16:05.705Z,20.17
2017-08-01T12:18:33.312Z,12.00
2017-08-01T12:21:01.015Z,10.30
2017-08-01T12:23:29.523Z,12.40
2017-08-01T12:25:57.105Z,15.10
2017-08-01T12:28:24.693Z,26.30
2017-08-01T12:30:52.478Z,12.63
2017-08-01T12:33:24.353Z,11.10
2017-08-01T12:35:52.058Z,12.73
2017-08-01T12:38:19.643Z,27.77
2017-08-01T12:40:47.298Z,18.07
2017-08-01T12:43:15.008Z,5.50
2017-08-01T12:45:42.615Z,17.57
2017-08-01T12:48:10.189Z,14.70
2017-08-01T12:50:38.600Z,8.93
2017-08-01T12:53:06.339Z,16.50
2017-08-01T12:55:33.938Z,18.03
2017-08-01T12:58:01.575Z,13.30
2017-08-01T13:00:30.046Z,11.10
2017-08-01T13:02:58.400Z,8.33
2017-08-01T13:05:26.013Z,8.03
2017-08-01T13:07:53.600Z,9.13
2017-08-01T13:10:21.283Z,9.83
2017-08-01T13:12:48.951Z,8.57
2017-08-01T13:15:16.550Z,11.17
2017-08-01T13:17:44.279Z,14.67
2017-08-01T13:20:11.880Z,8.47
2017-08-01T13:22:39.531Z,8.03
2017-08-01T13:25:07.895Z,8.67
2017-08-01T13:27:36.391Z,14.03
2017-08-01T13:30:04.925Z,7.33
2017-08-01T13:32:32.496Z,8.10
2017-08-01T13:35:00.116Z,11.47
2017-08-01T13:37:28.923Z,13.27
2017-08-01T13:39:56.511Z,13.30
2017-08-01T13:42:24.138Z,12.73
2017-08-01T13:44:51.846Z,10.80
2017-08-01T13:47:19.454Z,10.20
2017-08-01T13:49:47.073Z,15.40
2017-08-01T13:52:15.420Z,10.40
2017-08-01T13:54:43.170Z,11.03
2017-08-01T13:57:10.821Z,8.50
2017-08-01T13:59:38.397Z,9.80
2017-08-01T14:02:06.035Z,15.00
2017-08-01T14:04:33.717Z,11.70
2017-08-01T14:07:01.327Z,10.97
2017-08-01T14:09:29.676Z,16.17
2017-08-01T14:11:57.341Z,16.03
2017-08-01T14:14:24.941Z,29.83
2017-08-01T14:16:53.329Z,19.60
2017-08-01T14:19:20.955Z,14.03
2017-08-01T14:21:48.657Z,12.63
2017-08-01T14:24:16.277Z,11.07
2017-08-01T14:26:43.910Z,15.33
2017-08-01T14:29:11.565Z,11.73
2017-08-01T14:31:39.154Z,12.40
2017-08-01T14:34:07.567Z,15.30
2017-08-01T14:36:35.905Z,10.50
2017-08-01T14:39:03.674Z,8.93
2017-08-01T14:41:31.326Z,14.37
2017-08-01T14:43:59.116Z,16.20
2017-08-01T14:46:26.772Z,13.40
2017-08-01T14:48:54.455Z,17.17
2017-08-01T14:51:22.821Z,14.50
2017-08-01T14:53:51.286Z,18.13
2017-08-01T14:56:19.078Z,9.80
2017-08-01T14:58:47.968Z,11.23
2017-08-01T15:01:15.712Z,10.60
2017-08-01T15:03:43.363Z,11.93
2017-08-01T15:06:11.178Z,12.20
2017-08-01T15:08:38.768Z,10.20
2017-08-01T15:11:06.435Z,13.30
2017-08-01T15:13:34.062Z,16.63
2017-08-01T15:16:02.727Z,14.20
2017-08-01T15:18:31.138Z,19.93
2017-08-01T15:20:59.706Z,22.20
2017-08-01T15:23:29.172Z,11.53
2017-08-01T15:25:57.167Z,12.20
2017-08-01T15:28:26.030Z,11.90
2017-08-01T15:30:54.475Z,15.63
2017-08-01T15:33:22.139Z,16.00
2017-08-01T15:35:49.748Z,15.83
2017-08-01T15:38:18.603Z,23.13
2017-08-01T15:40:46.788Z,16.57
2017-08-01T15:43:14.582Z,13.50
2017-08-01T15:45:42.288Z,17.20
2017-08-01T15:48:09.988Z,14.47
2017-08-01T15:50:37.642Z,24.27
2017-08-01T15:53:05.220Z,12.17
2017-08-01T15:55:32.864Z,11.57
2017-08-01T15:58:00.489Z,18.43
2017-08-01T16:00:28.124Z,18.33
2017-08-01T16:02:55.747Z,15.60
2017-08-01T16:05:23.378Z,21.57
2017-08-01T16:07:51.032Z,18.20
2017-08-01T16:10:18.655Z,17.90
2017-08-01T16:12:46.292Z,20.00
2017-08-01T16:15:13.952Z,16.90
2017-08-01T16:17:41.565Z,16.70
2017-08-01T16:20:10.199Z,26.00
2017-08-01T16:22:37.872Z,23.33
2017-08-01T16:25:05.492Z,18.33
2017-08-01T16:27:33.081Z,19.60
2017-08-01T16:30:01.316Z,24.27
2017-08-01T16:32:29.813Z,21.23
2017-08-01T16:34:57.838Z,27.17
2017-08-01T16:37:26.241Z,23.53
2017-08-01T16:39:54.817Z,20.83
2017-08-01T16:42:23.173Z,19.23
2017-08-01T16:44:50.767Z,21.40
2017-08-01T16:47:18.471Z,25.10
2017-08-01T16:49:46.075Z,22.70
2017-08-01T16:52:13.857Z,25.57
2017-08-01T16:54:42.270Z,26.50
2017-08-01T16:57:09.949Z,23.23
2017-08-01T16:59:37.598Z,19.40
2017-08-01T17:02:05.240Z,26.73
2017-08-01T17:04:32.865Z,34.10
2017-08-01T17:07:01.305Z,26.07
2017-08-01T17:09:29.260Z,29.53
2017-08-01T17:11:56.887Z,26.60
2017-08-01T17:14:24.647Z,20.90
2017-08-01T17:16:52.471Z,21.13
2017-08-01T17:19:20.121Z,25.33
2017-08-01T17:21:47.937Z,26.50
2017-08-01T17:24:15.641Z,20.40
2017-08-01T17:26:43.329Z,19.90
2017-08-01T17:29:10.915Z,20.73
2017-08-01T17:31:42.815Z,22.20
2017-08-01T17:34:10.726Z,19.30
2017-08-01T17:36:38.373Z,21.13
2017-08-01T17:39:06.084Z,21.73
2017-08-01T17:41:34.570Z,18.07
2017-08-01T17:44:02.940Z,28.40
2017-08-01T17:46:30.656Z,21.63
2017-08-01T17:48:58.290Z,23.60
2017-08-01T17:51:25.983Z,18.77
2017-08-01T17:53:53.597Z,19.43
2017-08-01T17:56:21.336Z,25.13
2017-08-01T17:58:48.997Z,27.83
2017-08-01T18:01:16.685Z,21.40
2017-08-01T18:03:45.039Z,26.03
2017-08-01T18:06:12.738Z,26.23
2017-08-01T18:08:40.641Z,23.40
2017-08-01T18:11:08.379Z,27.57
2017-08-01T18:13:35.985Z,24.23
2017-08-01T18:16:03.880Z,29.53
2017-08-01T18:18:32.233Z,27.43
2017-08-01T18:20:59.880Z,22.00
2017-08-01T18:23:27.646Z,28.43
2017-08-01T18:25:55.229Z,30.30
2017-08-01T18:28:22.854Z,25.57
2017-08-01T18:30:50.780Z,20.80
2017-08-01T18:33:18.778Z,26.60
2017-08-01T18:35:46.432Z,25.03
2017-08-01T18:38:14.198Z,31.87
2017-08-01T18:40:41.897Z,27.00
2017-08-01T18:43:09.674Z,23.03
2017-08-01T18:45:38.401Z,34.23
2017-08-01T18:48:06.815Z,24.40
2017-08-01T18:50:34.695Z,24.23
2017-08-01T18:53:02.665Z,34.10
2017-08-01T18:55:31.384Z,29.37
2017-08-01T18:58:01.127Z,30.00
2017-08-01T19:00:28.747Z,29.53
2017-08-01T19:02:56.609Z,25.60
2017-08-01T19:05:24.629Z,24.97
2017-08-01T19:07:52.255Z,30.90
2017-08-01T19:10:19.986Z,35.37
2017-08-01T19:12:47.685Z,32.60
2017-08-01T19:15:15.500Z,30.87
2017-08-01T19:17:43.129Z,32.30
2017-08-01T19:20:13.965Z,33.43
2017-08-01T19:22:42.897Z,37.63
2017-08-01T19:25:22.614Z,34.07
2017-08-01T19:27:50.458Z,34.10
2017-08-01T19:30:19.339Z,30.73
2017-08-01T19:32:47.812Z,33.93
2017-08-01T19:35:15.454Z,33.27
2017-08-01T19:37:43.155Z,39.93
2017-08-01T19:40:11.962Z,38.10
2017-08-01T19:42:39.858Z,35.10
2017-08-01T19:45:07.481Z,31.97
2017-08-01T19:47:35.836Z,31.60
2017-08-01T19:50:03.881Z,36.43
2017-08-01T19:52:31.636Z,31.97
2017-08-01T19:54:59.324Z,35.83
2017-08-01T19:57:26.972Z,33.00
2017-08-01T19:59:54.727Z,31.07
2017-08-01T20:02:22.401Z,33.93
2017-08-01T20:04:50.176Z,34.27
2017-08-01T20:07:18.784Z,35.03
2017-08-01T20:09:46.609Z,32.00
2017-08-01T20:12:14.345Z,36.77
2017-08-01T20:14:42.436Z,32.53
2017-08-01T20:17:12.229Z,34.87
2017-08-01T20:19:41.089Z,34.17
2017-08-01T20:22:08.757Z,31.40
2017-08-01T20:24:36.403Z,32.10
2017-08-01T20:27:06.120Z,33.30
2017-08-01T20:29:33.769Z,29.23
2017-08-01T20:32:01.590Z,32.70
2017-08-01T20:34:30.388Z,33.03
2017-08-01T20:36:58.011Z,27.23
2017-08-01T20:39:25.803Z,38.33
2017-08-01T20:41:53.788Z,40.20
2017-08-01T20:44:21.437Z,46.20
2017-08-01T20:46:49.142Z,34.50
2017-08-01T20:49:16.772Z,33.37
2017-08-01T20:51:44.412Z,27.40
2017-08-01T20:54:12.039Z,41.90
2017-08-01T20:56:39.676Z,28.20
2017-08-01T20:59:07.299Z,31.10
2017-08-01T21:01:34.892Z,29.57
2017-08-01T21:04:02.504Z,35.00
2017-08-01T21:06:30.138Z,32.47
2017-08-01T21:08:57.768Z,29.43
2017-08-01T21:11:25.516Z,26.77
2017-08-01T21:13:53.152Z,33.73
2017-08-01T21:16:20.765Z,25.10
2017-08-01T21:18:48.387Z,25.33
2017-08-01T21:21:16.039Z,29.53
2017-08-01T21:23:43.715Z,27.37
2017-08-01T21:26:11.338Z,32.83
2017-08-01T21:28:40.015Z,31.77
2017-08-01T21:31:07.681Z,31.00
2017-08-01T21:33:35.517Z,31.67
2017-08-01T21:36:03.925Z,31.07
2017-08-01T21:38:31.512Z,30.07
2017-08-01T21:40:59.236Z,26.27
2017-08-01T21:43:26.823Z,29.23
2017-08-01T21:45:54.427Z,25.83
2017-08-01T21:48:22.124Z,28.60
2017-08-01T21:50:49.826Z,28.07
2017-08-01T21:53:17.443Z,36.57
2017-08-01T21:55:46.220Z,35.40
2017-08-01T21:58:13.884Z,29.53
2017-08-01T22:00:41.489Z,32.23
2017-08-01T22:03:09.947Z,31.00
2017-08-01T22:05:37.567Z,29.83
2017-08-01T22:08:05.334Z,28.23
2017-08-01T22:10:33.837Z,24.77
2017-08-01T22:13:03.444Z,34.83
2017-08-01T22:15:32.003Z,31.10
2017-08-01T22:17:59.628Z,22.50
2017-08-01T22:20:27.367Z,34.40
2017-08-01T22:22:54.958Z,30.93
2017-08-01T22:25:22.589Z,30.57
2017-08-01T22:27:50.337Z,38.07
2017-08-01T22:30:17.985Z,30.13
2017-08-01T22:32:45.662Z,25.13
2017-08-01T22:35:13.311Z,34.90
2017-08-01T22:37:40.958Z,33.00
2017-08-01T22:40:08.574Z,26.73
2017-08-01T22:42:36.944Z,29.00
2017-08-01T22:45:04.590Z,37.73
2017-08-01T22:47:32.315Z,38.50
2017-08-01T22:49:59.935Z,41.23
2017-08-01T22:52:28.296Z,51.67
2017-08-01T22:54:55.970Z,37.37
2017-08-01T22:57:23.580Z,41.13
2017-08-01T22:59:51.216Z,38.53
2017-08-01T23:02:19.727Z,32.37
2017-08-01T23:04:47.376Z,31.17
2017-08-01T23:07:15.004Z,41.30
2017-08-01T23:09:43.392Z,46.00
2017-08-01T23:12:11.083Z,34.87
2017-08-01T23:14:38.675Z,40.10
2017-08-01T23:17:06.306Z,37.87
2017-08-01T23:19:33.979Z,49.90
2017-08-01T23:22:04.189Z,40.53
2017-08-01T23:24:32.591Z,34.53
2017-08-01T23:27:00.215Z,40.40
2017-08-01T23:29:27.811Z,38.70
2017-08-01T23:31:55.479Z,36.00
2017-08-01T23:34:23.098Z,39.13
2017-08-01T23:36:50.738Z,30.73
2017-08-01T23:39:19.191Z,25.80
2017-08-01T23:41:47.910Z,30.87
2017-08-01T23:44:16.191Z,37.27
2017-08-01T23:46:44.575Z,47.07
2017-08-01T23:49:12.843Z,34.60
2017-08-01T23:51:40.516Z,32.20
2017-08-01T23:54:08.900Z,40.57
2017-08-01T23:56:37.147Z,40.23
2017-08-01T23:59:04.796Z,36.63
